createdAt,value
2023-02-20T00:01:13.058Z,10.1
2023-02-20T00:02:29.351Z,8.9
2023-02-20T00:03:45.654Z,10.2
2023-02-20T00:05:01.952Z,8.7
2023-02-20T00:06:18.239Z,9.7
2023-02-20T00:07:34.544Z,8.7
2023-02-20T00:08:50.840Z,8.3
2023-02-20T00:10:07.129Z,9.7
2023-02-20T00:11:23.418Z,10.8
2023-02-20T00:12:39.717Z,10.4
2023-02-20T00:13:56.009Z,10.2
2023-02-20T00:15:12.306Z,7.7
2023-02-20T00:16:28.607Z,9
2023-02-20T00:17:43.912Z,8.2
2023-02-20T00:19:00.209Z,8.3
2023-02-20T00:20:16.497Z,8.6
2023-02-20T00:21:32.786Z,9.5
2023-02-20T00:22:49.088Z,10
2023-02-20T00:24:05.388Z,8.3
2023-02-20T00:25:21.687Z,10
2023-02-20T00:26:37.972Z,9.5
2023-02-20T00:27:54.257Z,9.4
2023-02-20T00:29:10.565Z,9.9
2023-02-20T00:30:26.860Z,9.7
2023-02-20T00:31:43.151Z,9.4
2023-02-20T00:32:59.440Z,9
2023-02-20T00:34:14.757Z,8.8
2023-02-20T00:35:31.048Z,9.3
2023-02-20T00:36:47.340Z,9.2
2023-02-20T00:38:03.632Z,9.1
2023-02-20T00:39:19.940Z,9.7
2023-02-20T00:40:36.235Z,8.5
2023-02-20T00:41:52.524Z,9.7
2023-02-20T00:43:08.813Z,8.3
2023-02-20T00:44:25.113Z,8.7
2023-02-20T00:45:41.412Z,8.3
2023-02-20T00:46:57.702Z,8.1
2023-02-20T00:48:13.988Z,9
2023-02-20T00:49:30.292Z,8.8
2023-02-20T00:50:46.706Z,9.3
2023-02-20T00:52:02.998Z,9.2
2023-02-20T00:53:19.287Z,9.5
2023-02-20T00:54:35.591Z,11.9
2023-02-20T00:55:51.879Z,8
2023-02-20T00:57:08.178Z,9.6
2023-02-20T00:58:24.476Z,9.1
2023-02-20T00:59:40.766Z,9
2023-02-20T01:00:57.052Z,8.3
2023-02-20T01:02:13.343Z,9.1
2023-02-20T01:03:29.646Z,8.7
2023-02-20T01:04:45.949Z,9.2
2023-02-20T01:06:02.238Z,10.1
2023-02-20T01:07:17.549Z,8.5
2023-02-20T01:08:33.842Z,8.9
2023-02-20T01:09:50.129Z,10
2023-02-20T01:11:06.428Z,9.1
2023-02-20T01:12:22.718Z,9.5
2023-02-20T01:13:39.028Z,10.6
2023-02-20T01:14:55.326Z,9.6
2023-02-20T01:16:11.606Z,8.8
2023-02-20T01:17:27.912Z,10.5
2023-02-20T01:18:44.188Z,9.8
2023-02-20T01:20:00.495Z,9.1
2023-02-20T01:21:16.779Z,8.4
2023-02-20T01:22:33.071Z,9.2
2023-02-20T01:23:48.387Z,8.5
2023-02-20T01:25:04.676Z,9.5
2023-02-20T01:26:20.980Z,8.4
2023-02-20T01:27:37.277Z,9.3
2023-02-20T01:28:53.564Z,11
2023-02-20T01:30:09.861Z,9.7
2023-02-20T01:31:26.165Z,10.2
2023-02-20T01:32:42.451Z,10.5
2023-02-20T01:33:58.756Z,10.8
2023-02-20T01:35:15.042Z,9.6
2023-02-20T01:36:31.328Z,8.9
2023-02-20T01:37:47.636Z,8.9
2023-02-20T01:39:03.916Z,9.9
2023-02-20T01:40:19.231Z,9.1
2023-02-20T01:41:35.527Z,9.8
2023-02-20T01:42:51.820Z,9.3
2023-02-20T01:44:08.117Z,9
2023-02-20T01:45:24.413Z,9.8
2023-02-20T01:46:40.696Z,9
2023-02-20T01:47:56.990Z,9.6
2023-02-20T01:49:13.287Z,8.6
2023-02-20T01:50:29.592Z,8.8
2023-02-20T01:51:45.891Z,10.1
2023-02-20T01:53:02.188Z,10
2023-02-20T01:54:18.469Z,9.5
2023-02-20T01:55:34.773Z,9.4
2023-02-20T01:56:50.080Z,9.5
2023-02-20T01:58:06.367Z,9.6
2023-02-20T01:59:22.659Z,9.5
2023-02-20T02:00:38.960Z,10.2
2023-02-20T02:01:55.266Z,10.7
2023-02-20T02:03:11.539Z,11
2023-02-20T02:04:27.833Z,8.7
2023-02-20T02:05:44.148Z,8.6
2023-02-20T02:07:00.443Z,9.4
2023-02-20T02:08:16.733Z,9.8
2023-02-20T02:09:33.013Z,9.3
2023-02-20T02:10:49.331Z,9.3
2023-02-20T02:12:05.604Z,8.6
2023-02-20T02:13:20.912Z,8.5
2023-02-20T02:14:37.206Z,8.8
2023-02-20T02:15:53.516Z,8.9
2023-02-20T02:17:09.795Z,8.3
2023-02-20T02:18:26.092Z,9.3
2023-02-20T02:19:42.398Z,8.2
2023-02-20T02:20:58.684Z,9.5
2023-02-20T02:22:14.982Z,9.8
2023-02-20T02:23:31.265Z,8.7
2023-02-20T02:24:47.562Z,10.4
2023-02-20T02:26:03.864Z,8.6
2023-02-20T02:27:20.148Z,8.8
2023-02-20T02:28:36.449Z,8.2
2023-02-20T02:29:51.775Z,8.4
2023-02-20T02:31:08.071Z,8.5
2023-02-20T02:32:24.364Z,11.2
2023-02-20T02:33:40.643Z,8
2023-02-20T02:34:56.939Z,10
2023-02-20T02:36:13.232Z,8.4
2023-02-20T02:37:29.518Z,9.2
2023-02-20T02:38:45.839Z,10.1
2023-02-20T02:40:02.116Z,8.2
2023-02-20T02:41:18.416Z,10.3
2023-02-20T02:42:34.697Z,9.8
2023-02-20T02:43:51.002Z,8.1
2023-02-20T02:45:07.298Z,10.4
2023-02-20T02:46:22.595Z,8.8
2023-02-20T02:47:38.917Z,8.2
2023-02-20T02:48:55.192Z,8.8
2023-02-20T02:50:11.490Z,8.2
2023-02-20T02:51:27.788Z,9
2023-02-20T02:52:44.079Z,9.5
2023-02-20T02:54:00.371Z,8
2023-02-20T02:55:16.661Z,8.6
2023-02-20T02:56:32.967Z,9.3
2023-02-20T02:57:49.250Z,10.9
2023-02-20T02:59:05.557Z,7.8
2023-02-20T03:00:21.838Z,8.5
2023-02-20T03:01:38.136Z,8.6
2023-02-20T03:02:53.461Z,9
2023-02-20T03:04:09.738Z,9.3
2023-02-20T03:05:26.039Z,10.6
2023-02-20T03:06:42.343Z,7.8
2023-02-20T03:07:58.618Z,9
2023-02-20T03:09:14.916Z,8.7
2023-02-20T03:10:31.218Z,9.4
2023-02-20T03:11:47.500Z,9.2
2023-02-20T03:13:03.803Z,8.5
2023-02-20T03:14:20.113Z,9.3
2023-02-20T03:15:36.400Z,9.6
2023-02-20T03:16:52.682Z,8.8
2023-02-20T03:18:08.971Z,8.5
2023-02-20T03:19:24.288Z,10
2023-02-20T03:20:40.585Z,9.4
2023-02-20T03:21:56.878Z,8.6
2023-02-20T03:23:13.176Z,8.4
2023-02-20T03:24:29.468Z,9.4
2023-02-20T03:25:45.752Z,7.8
2023-02-20T03:27:02.047Z,8.9
2023-02-20T03:28:18.360Z,8.2
2023-02-20T03:29:34.634Z,9.7
2023-02-20T03:30:50.929Z,9.3
2023-02-20T03:32:07.232Z,8.9
2023-02-20T03:33:23.527Z,8.8
2023-02-20T03:34:39.823Z,8.9
2023-02-20T03:35:55.127Z,9.5
2023-02-20T03:37:11.426Z,8.9
2023-02-20T03:38:27.711Z,10.2
2023-02-20T03:39:44.020Z,11.7
2023-02-20T03:41:00.301Z,8.7
2023-02-20T03:42:16.602Z,9.6
2023-02-20T03:43:31.916Z,9.5
2023-02-20T03:44:48.209Z,8.8
2023-02-20T03:46:04.503Z,10.3
2023-02-20T03:47:20.806Z,9.6
2023-02-20T03:48:37.101Z,11.1
2023-02-20T03:49:53.384Z,9.8
2023-02-20T03:52:25.971Z,10.1
2023-02-20T03:53:42.273Z,10.2
2023-02-20T03:54:58.576Z,10.7
2023-02-20T03:56:14.862Z,11.5
2023-02-20T03:57:31.164Z,11
2023-02-20T03:58:47.461Z,11.9
2023-02-20T04:00:02.767Z,10.4
2023-02-20T04:01:19.051Z,11.9
2023-02-20T04:02:35.355Z,10.8
2023-02-20T04:03:51.639Z,12.2
2023-02-20T04:05:07.942Z,12.5
2023-02-20T04:06:24.238Z,11.4
2023-02-20T04:07:40.531Z,12.1
2023-02-20T04:08:56.815Z,12.5
2023-02-20T04:10:13.128Z,11.4
2023-02-20T04:11:29.417Z,12.6
2023-02-20T04:12:45.721Z,10.9
2023-02-20T04:14:02.002Z,12.4
2023-02-20T04:15:18.293Z,11.2
2023-02-20T04:16:33.605Z,10.9
2023-02-20T04:17:49.901Z,13.9
2023-02-20T04:19:06.200Z,10.5
2023-02-20T04:20:22.483Z,12.2
2023-02-20T04:21:38.781Z,10.9
2023-02-20T04:22:55.088Z,12.6
2023-02-20T04:24:11.375Z,13.3
2023-02-20T04:25:27.654Z,12.3
2023-02-20T04:26:43.959Z,10.3
2023-02-20T04:28:00.250Z,10.6
2023-02-20T04:29:16.556Z,11.6
2023-02-20T04:30:32.853Z,12.5
2023-02-20T04:31:49.128Z,11.5
2023-02-20T04:33:04.449Z,12.2
2023-02-20T04:34:20.732Z,12.3
2023-02-20T04:35:37.035Z,12.8
2023-02-20T04:36:53.338Z,11.4
2023-02-20T04:38:09.634Z,11.1
2023-02-20T04:39:25.936Z,11.2
2023-02-20T04:40:42.216Z,12
2023-02-20T04:41:58.514Z,11.8
2023-02-20T04:43:14.788Z,11
2023-02-20T04:44:31.097Z,12.1
2023-02-20T04:45:47.376Z,12.1
2023-02-20T04:47:03.686Z,12.4
2023-02-20T04:48:19.987Z,10.7
2023-02-20T04:49:35.278Z,11.9
2023-02-20T04:50:51.573Z,11.4
2023-02-20T04:52:07.884Z,11.9
2023-02-20T04:53:24.159Z,10.8
2023-02-20T04:54:40.453Z,11
2023-02-20T04:55:56.749Z,10.7
2023-02-20T04:57:13.047Z,11.4
2023-02-20T04:58:29.351Z,11.2
2023-02-20T04:59:45.647Z,11.4
2023-02-20T05:01:01.937Z,11.3
2023-02-20T05:02:18.217Z,10.2
2023-02-20T05:03:34.519Z,10.7
2023-02-20T05:04:50.822Z,10.5
2023-02-20T05:06:06.122Z,11.9
2023-02-20T05:07:22.430Z,10
2023-02-20T05:08:38.708Z,10.3
2023-02-20T05:09:55.010Z,11.4
2023-02-20T05:11:11.301Z,10.4
2023-02-20T05:12:27.605Z,9
2023-02-20T05:13:43.894Z,10.8
2023-02-20T05:15:00.187Z,11
2023-02-20T05:16:16.489Z,11
2023-02-20T05:17:32.765Z,11.9
2023-02-20T05:18:49.069Z,11.1
2023-02-20T05:20:05.358Z,10.1
2023-02-20T05:21:21.653Z,10.6
2023-02-20T05:22:36.977Z,11.5
2023-02-20T05:23:53.280Z,11.2
2023-02-20T05:25:09.564Z,10.4
2023-02-20T05:26:25.853Z,10.9
2023-02-20T05:27:42.148Z,11.3
2023-02-20T05:28:58.430Z,12
2023-02-20T05:30:14.735Z,13.3
2023-02-20T05:31:31.027Z,12.1
2023-02-20T05:32:47.312Z,14.1
2023-02-20T05:34:03.617Z,13.8
2023-02-20T05:35:19.910Z,13.2
2023-02-20T05:36:36.224Z,11.8
2023-02-20T05:39:08.794Z,12.3
2023-02-20T05:40:24.099Z,12.6
2023-02-20T05:41:40.395Z,12.6
2023-02-20T05:42:56.699Z,11.1
2023-02-20T05:44:13.000Z,11.8
2023-02-20T05:45:29.283Z,11
2023-02-20T05:46:45.575Z,11.4
2023-02-20T05:48:01.817Z,10.2
2023-02-20T05:49:18.124Z,12
2023-02-20T05:50:34.412Z,10.5
2023-02-20T05:51:50.653Z,11
2023-02-20T05:53:06.901Z,11.5
2023-02-20T05:54:23.131Z,10.1
2023-02-20T05:55:39.437Z,10.8
2023-02-20T05:56:54.702Z,10.3
2023-02-20T05:58:10.956Z,10.5
2023-02-20T05:59:27.227Z,11
2023-02-20T06:00:43.490Z,9.7
2023-02-20T06:01:59.730Z,10.4
2023-02-20T06:03:15.976Z,10.1
2023-02-20T06:04:32.213Z,10.3
2023-02-20T06:05:48.442Z,9.8
2023-02-20T06:07:04.692Z,10.4
2023-02-20T06:08:20.918Z,9.6
2023-02-20T06:09:37.157Z,10
2023-02-20T06:10:53.426Z,9.5
2023-02-20T06:12:09.651Z,10.9
2023-02-20T06:13:24.909Z,9.4
2023-02-20T06:14:41.149Z,10.5
2023-02-20T06:15:57.387Z,10.6
2023-02-20T06:17:13.623Z,10.5
2023-02-20T06:18:29.865Z,10.1
2023-02-20T06:19:46.117Z,9.2
2023-02-20T06:21:02.348Z,10.1
2023-02-20T06:22:18.594Z,9.1
2023-02-20T06:23:34.818Z,9.6
2023-02-20T06:24:51.068Z,8.9
2023-02-20T06:26:07.302Z,9.4
2023-02-20T06:27:23.537Z,9.6
2023-02-20T06:28:39.791Z,9.2
2023-02-20T06:29:55.053Z,9.2
2023-02-20T06:32:27.513Z,9.3
2023-02-20T06:33:43.761Z,9.5
2023-02-20T06:35:00.017Z,10.1
2023-02-20T06:36:16.242Z,10
2023-02-20T06:37:32.483Z,10.6
2023-02-20T06:38:48.733Z,7.9
2023-02-20T06:40:04.978Z,9.5
2023-02-20T06:41:21.197Z,9.9
2023-02-20T06:42:37.441Z,9.7
2023-02-20T06:43:53.693Z,9
2023-02-20T06:45:09.933Z,9.5
2023-02-20T06:46:25.173Z,9.7
2023-02-20T06:47:41.420Z,8.7
2023-02-20T06:48:57.679Z,9
2023-02-20T06:50:13.893Z,9.8
2023-02-20T06:51:30.146Z,8.8
2023-02-20T06:52:46.377Z,9.4
2023-02-20T06:54:02.630Z,8.5
2023-02-20T06:55:18.869Z,9.8
2023-02-20T06:56:35.118Z,8.7
2023-02-20T06:57:51.338Z,9.1
2023-02-20T06:59:07.586Z,8.9
2023-02-20T07:00:23.822Z,8.4
2023-02-20T07:01:40.064Z,10.3
2023-02-20T07:02:55.323Z,10
2023-02-20T07:04:11.564Z,8.5
2023-02-20T07:05:27.801Z,9.3
2023-02-20T07:06:44.050Z,8.9
2023-02-20T07:08:00.286Z,9.7
2023-02-20T07:09:16.535Z,9.5
2023-02-20T07:10:32.773Z,9.5
2023-02-20T07:11:49.014Z,9.7
2023-02-20T07:13:05.262Z,9
2023-02-20T07:14:21.479Z,8.8
2023-02-20T07:15:37.735Z,8.8
2023-02-20T07:16:53.964Z,10
2023-02-20T07:18:10.196Z,9.3
2023-02-20T07:19:25.468Z,9.3
2023-02-20T07:20:41.698Z,9
2023-02-20T07:21:57.944Z,9.8
2023-02-20T07:23:14.188Z,9.3
2023-02-20T07:24:30.427Z,10.1
2023-02-20T07:25:46.656Z,9.8
2023-02-20T07:27:02.910Z,9.5
2023-02-20T07:28:19.165Z,9.4
2023-02-20T07:29:35.377Z,11
2023-02-20T07:30:51.629Z,10.7
2023-02-20T07:32:07.875Z,9.3
2023-02-20T07:33:24.125Z,9.2
2023-02-20T07:34:40.340Z,9.9
2023-02-20T07:35:55.605Z,8.8
2023-02-20T07:37:11.856Z,9.7
2023-02-20T07:38:28.076Z,9.8
2023-02-20T07:39:44.313Z,10.3
2023-02-20T07:41:00.563Z,9.8
2023-02-20T07:42:16.803Z,10.8
2023-02-20T07:43:33.039Z,11.2
2023-02-20T07:44:49.289Z,11.1
2023-02-20T07:46:05.529Z,10.3
2023-02-20T07:47:21.776Z,9.8
2023-02-20T07:48:38.012Z,10.8
2023-02-20T07:49:54.247Z,9.8
2023-02-20T07:51:10.488Z,8.5
2023-02-20T07:52:25.742Z,9.3
2023-02-20T07:53:41.985Z,8.8
2023-02-20T07:54:58.231Z,10.1
2023-02-20T07:56:14.461Z,10.6
2023-02-20T07:57:30.712Z,11.9
2023-02-20T07:58:45.970Z,10.1
2023-02-20T08:00:02.197Z,8.8
2023-02-20T08:01:18.443Z,9.2
2023-02-20T08:02:34.681Z,9.4
2023-02-20T08:03:50.922Z,9
2023-02-20T08:05:07.166Z,9.2
2023-02-20T08:06:23.407Z,9
2023-02-20T08:07:39.652Z,8.7
2023-02-20T08:08:55.893Z,9.2
2023-02-20T08:10:12.133Z,9.9
2023-02-20T08:11:28.372Z,8.6
2023-02-20T08:12:44.602Z,8.4
2023-02-20T08:14:00.837Z,7.7
2023-02-20T08:15:16.092Z,9.4
2023-02-20T08:16:32.336Z,9.4
2023-02-20T08:19:04.820Z,9.4
2023-02-20T08:20:21.056Z,10.1
2023-02-20T08:21:37.298Z,9.8
2023-02-20T08:22:53.535Z,9.5
2023-02-20T08:24:09.789Z,9.6
2023-02-20T08:25:26.028Z,9.1
2023-02-20T08:26:42.271Z,8.9
2023-02-20T08:27:58.516Z,9.4
2023-02-20T08:29:14.738Z,7.6
2023-02-20T08:30:30.980Z,8.9
2023-02-20T08:31:46.241Z,8.4
2023-02-20T08:33:02.486Z,8.8
2023-02-20T08:34:18.718Z,8
2023-02-20T08:35:34.980Z,7.5
2023-02-20T08:36:51.217Z,9.5
2023-02-20T08:38:07.455Z,7.7
2023-02-20T08:39:23.674Z,7.7
2023-02-20T08:40:39.931Z,9.2
2023-02-20T08:41:56.175Z,9.2
2023-02-20T08:43:12.421Z,8.6
2023-02-20T08:44:28.647Z,9.3
2023-02-20T08:45:44.885Z,7.9
2023-02-20T08:47:01.117Z,7.9
2023-02-20T08:48:16.384Z,7.3
2023-02-20T08:49:32.628Z,8.4
2023-02-20T08:50:48.856Z,7.4
2023-02-20T08:52:05.104Z,7.7
2023-02-20T08:53:21.331Z,7.3
2023-02-20T08:54:37.582Z,8.8
2023-02-20T08:55:53.831Z,8.7
2023-02-20T08:57:10.053Z,7.6
2023-02-20T08:58:26.306Z,8.9
2023-02-20T08:59:42.540Z,7.9
2023-02-20T09:00:58.776Z,7.9
2023-02-20T09:02:15.010Z,7.6
2023-02-20T09:03:31.255Z,7.1
2023-02-20T09:04:46.530Z,8.5
2023-02-20T09:06:02.769Z,6.7
2023-02-20T09:07:19.002Z,6.5
2023-02-20T09:08:35.234Z,8.8
2023-02-20T09:09:51.468Z,7.8
2023-02-20T09:11:07.707Z,6.2
2023-02-20T09:12:23.959Z,7.7
2023-02-20T09:13:40.186Z,7.4
2023-02-20T09:14:56.429Z,6.6
2023-02-20T09:16:12.672Z,7.3
2023-02-20T09:17:28.923Z,8
2023-02-20T09:18:45.150Z,6.7
2023-02-20T09:20:01.407Z,6.8
2023-02-20T09:21:16.646Z,7
2023-02-20T09:22:32.886Z,6.8
2023-02-20T09:23:49.136Z,7.2
2023-02-20T09:25:05.367Z,6.8
2023-02-20T09:26:21.614Z,6.6
2023-02-20T09:27:37.846Z,6.7
2023-02-20T09:28:54.102Z,7.7
2023-02-20T09:30:10.336Z,6.9
2023-02-20T09:31:26.579Z,7.2
2023-02-20T09:32:42.812Z,6.8
2023-02-20T09:33:59.060Z,6.4
2023-02-20T09:35:15.299Z,6.1
2023-02-20T09:36:31.548Z,7.1
2023-02-20T09:37:46.792Z,8.9
2023-02-20T09:39:03.022Z,6.2
2023-02-20T09:40:19.279Z,6
2023-02-20T09:41:35.518Z,6.8
2023-02-20T09:42:51.759Z,6.6
2023-02-20T09:44:07.996Z,5.6
2023-02-20T09:45:24.240Z,6.4
2023-02-20T09:46:40.479Z,7.2
2023-02-20T09:47:56.719Z,6.9
2023-02-20T09:49:12.973Z,6.9
2023-02-20T09:50:29.188Z,5.8
2023-02-20T09:51:45.438Z,6.2
2023-02-20T09:53:01.678Z,5.6
2023-02-20T09:54:16.940Z,5.9
2023-02-20T09:55:33.175Z,7.3
2023-02-20T09:56:49.411Z,6.1
2023-02-20T09:58:05.642Z,5.4
2023-02-20T09:59:21.881Z,7.7
2023-02-20T10:00:38.124Z,5.6
2023-02-20T10:01:54.363Z,5.2
2023-02-20T10:03:10.629Z,5.7
2023-02-20T10:04:26.870Z,6.5
2023-02-20T10:05:43.092Z,6.6
2023-02-20T10:06:59.326Z,5.9
2023-02-20T10:08:15.574Z,6
2023-02-20T10:09:31.813Z,4.7
2023-02-20T10:10:47.074Z,5.3
2023-02-20T10:12:03.307Z,4.8
2023-02-20T10:13:19.554Z,5.8
2023-02-20T10:14:35.792Z,6.2
2023-02-20T10:15:52.034Z,4.9
2023-02-20T10:17:08.266Z,5.8
2023-02-20T10:18:24.513Z,5.7
2023-02-20T10:19:40.735Z,5.7
2023-02-20T10:20:57.003Z,4.9
2023-02-20T10:22:13.220Z,5.4
2023-02-20T10:23:29.481Z,5.1
2023-02-20T10:24:45.713Z,5.5
2023-02-20T10:26:01.952Z,5.3
2023-02-20T10:27:17.209Z,5.1
2023-02-20T10:28:33.442Z,5.5
2023-02-20T10:29:49.673Z,5.1
2023-02-20T10:31:05.909Z,4.7
2023-02-20T10:32:22.164Z,5.5
2023-02-20T10:33:38.420Z,4.6
2023-02-20T10:34:54.632Z,3.6
2023-02-20T10:36:10.887Z,4.9
2023-02-20T10:37:27.118Z,6.2
2023-02-20T10:38:43.372Z,5.6
2023-02-20T10:39:59.587Z,4.9
2023-02-20T10:41:15.828Z,4.8
2023-02-20T10:42:32.088Z,5.9
2023-02-20T10:43:48.328Z,4.8
2023-02-20T10:45:03.580Z,3.7
2023-02-20T10:46:19.813Z,5.3
2023-02-20T10:47:36.062Z,4.4
2023-02-20T10:48:52.285Z,4.7
2023-02-20T10:50:08.542Z,4.7
2023-02-20T10:51:24.779Z,4.8
2023-02-20T10:52:41.019Z,4.6
2023-02-20T10:53:57.248Z,4.6
2023-02-20T10:55:13.482Z,4.4
2023-02-20T10:56:29.735Z,4.8
2023-02-20T10:57:45.981Z,4.8
2023-02-20T10:59:02.217Z,4.7
2023-02-20T11:00:18.457Z,4.7
2023-02-20T11:01:33.716Z,4.7
2023-02-20T11:02:49.938Z,5
2023-02-20T11:04:06.191Z,4.1
2023-02-20T11:05:22.418Z,4
2023-02-20T11:06:38.668Z,4
2023-02-20T11:07:54.900Z,4.2
2023-02-20T11:09:11.147Z,4.8
2023-02-20T11:10:27.379Z,5
2023-02-20T11:11:43.619Z,4.2
2023-02-20T11:12:59.857Z,4.4
2023-02-20T11:14:16.112Z,4.5
2023-02-20T11:15:32.351Z,5.1
2023-02-20T11:16:48.588Z,4.9
2023-02-20T11:18:03.838Z,4.9
2023-02-20T11:19:20.087Z,4.4
2023-02-20T11:20:36.323Z,4.4
2023-02-20T11:21:52.561Z,5.9
2023-02-20T11:23:08.000Z,4.5
2023-02-20T11:24:25.041Z,4.6
2023-02-20T11:25:41.281Z,3.6
2023-02-20T11:26:57.529Z,5.7
2023-02-20T11:28:13.756Z,4.3
2023-02-20T11:29:30.003Z,4.6
2023-02-20T11:30:46.240Z,4
2023-02-20T11:32:02.490Z,6.1
2023-02-20T11:33:18.705Z,4.6
2023-02-20T11:34:33.974Z,4.3
2023-02-20T11:35:50.205Z,4.2
2023-02-20T11:37:06.448Z,3.9
2023-02-20T11:38:22.688Z,4.2
2023-02-20T11:39:38.933Z,3.9
2023-02-20T11:40:55.173Z,4.8
2023-02-20T11:42:11.402Z,4.9
2023-02-20T11:43:27.655Z,4.9
2023-02-20T11:44:43.881Z,3.4
2023-02-20T11:46:00.146Z,3.9
2023-02-20T11:47:16.376Z,3.8
2023-02-20T11:48:32.605Z,3.9
2023-02-20T11:49:48.838Z,4.5
2023-02-20T11:51:04.098Z,4.1
2023-02-20T11:52:20.342Z,4.7
2023-02-20T11:53:36.586Z,3.5
2023-02-20T11:54:52.828Z,4.5
2023-02-20T11:56:09.068Z,4.5
2023-02-20T11:57:25.306Z,4.4
2023-02-20T11:58:41.557Z,3.2
2023-02-20T11:59:57.773Z,4.1
2023-02-20T12:01:14.028Z,4.2
2023-02-20T12:02:30.269Z,4.5
2023-02-20T12:03:46.496Z,4
2023-02-20T12:05:02.733Z,3.9
2023-02-20T12:06:18.987Z,3.7
2023-02-20T12:07:34.229Z,4.3
2023-02-20T12:08:50.464Z,4.7
2023-02-20T12:10:06.719Z,3.8
2023-02-20T12:11:22.945Z,6
2023-02-20T12:12:39.184Z,5.9
2023-02-20T12:13:54.450Z,4.4
2023-02-20T12:15:10.695Z,4.2
2023-02-20T12:16:26.943Z,3.9
2023-02-20T12:17:43.168Z,3.8
2023-02-20T12:18:59.435Z,4.4
2023-02-20T12:20:15.662Z,3.6
2023-02-20T12:21:31.896Z,3.9
2023-02-20T12:22:48.139Z,4.2
2023-02-20T12:24:04.372Z,3.6
2023-02-20T12:25:20.626Z,3.7
2023-02-20T12:26:36.865Z,4.4
2023-02-20T12:27:53.111Z,5.1
2023-02-20T12:29:09.331Z,3.9
2023-02-20T12:30:24.600Z,3.5
2023-02-20T12:31:40.831Z,4.7
2023-02-20T12:32:57.077Z,4
2023-02-20T12:34:13.315Z,4.3
2023-02-20T12:35:29.551Z,3.5
2023-02-20T12:36:45.788Z,3.4
2023-02-20T12:38:02.025Z,4.2
2023-02-20T12:39:18.276Z,5.7
2023-02-20T12:40:34.518Z,5
2023-02-20T12:41:50.742Z,3.3
2023-02-20T12:43:06.995Z,5.4
2023-02-20T12:44:23.230Z,4.8
2023-02-20T12:45:39.000Z,2.9
2023-02-20T12:46:54.719Z,3.5
2023-02-20T12:48:10.955Z,4.2
2023-02-20T12:49:27.214Z,3.5
2023-02-20T12:50:43.446Z,4.8
2023-02-20T12:51:59.686Z,6.9
2023-02-20T12:53:15.931Z,4.2
2023-02-20T12:54:32.155Z,5.9
2023-02-20T12:55:48.409Z,4.6
2023-02-20T12:57:04.645Z,3.8
2023-02-20T12:58:20.877Z,4.6
2023-02-20T12:59:37.117Z,4.5
2023-02-20T13:00:53.370Z,4.2
2023-02-20T13:02:09.606Z,4.6
2023-02-20T13:03:24.847Z,4.5
2023-02-20T13:04:41.088Z,4.2
2023-02-20T13:05:57.346Z,3.8
2023-02-20T13:07:13.586Z,5.4
2023-02-20T13:08:29.805Z,4.8
2023-02-20T13:09:46.064Z,4.8
2023-02-20T13:11:02.305Z,4.1
2023-02-20T13:12:18.529Z,4.6
2023-02-20T13:13:34.784Z,4.8
2023-02-20T13:16:07.271Z,4
2023-02-20T13:17:23.493Z,4.8
2023-02-20T13:18:39.756Z,4.4
2023-02-20T13:19:54.987Z,3.6
2023-02-20T13:21:11.240Z,5.7
2023-02-20T13:22:27.463Z,5.1
2023-02-20T13:23:43.709Z,4.2
2023-02-20T13:24:59.940Z,5.1
2023-02-20T13:26:16.182Z,4.2
2023-02-20T13:27:32.437Z,5.4
2023-02-20T13:28:48.685Z,3.2
2023-02-20T13:30:04.914Z,3.5
2023-02-20T13:31:21.142Z,3.6
2023-02-20T13:32:37.399Z,4.9
2023-02-20T13:33:53.648Z,3.7
2023-02-20T13:35:09.884Z,4.3
2023-02-20T13:36:25.148Z,3.4
2023-02-20T13:37:41.374Z,3.6
2023-02-20T13:38:57.621Z,6.3
2023-02-20T13:40:13.854Z,4.3
2023-02-20T13:41:30.103Z,4.7
2023-02-20T13:42:46.336Z,4.4
2023-02-20T13:44:02.587Z,4.4
2023-02-20T13:45:18.799Z,5.6
2023-02-20T13:46:35.045Z,4.2
2023-02-20T13:47:51.284Z,3.9
2023-02-20T13:49:07.528Z,4.4
2023-02-20T13:50:23.767Z,3.2
2023-02-20T13:51:40.021Z,4.1
2023-02-20T13:52:55.267Z,4
2023-02-20T13:54:11.495Z,4.4
2023-02-20T13:55:27.739Z,4.5
2023-02-20T13:56:43.970Z,3.8
2023-02-20T13:58:00.219Z,4.2
2023-02-20T13:59:16.459Z,4.5
2023-02-20T14:00:32.690Z,5.6
2023-02-20T14:01:48.943Z,3.2
2023-02-20T14:03:05.189Z,4.8
2023-02-20T14:04:21.412Z,5.6
2023-02-20T14:05:37.655Z,4.5
2023-02-20T14:06:53.895Z,4.3
2023-02-20T14:08:10.146Z,5
2023-02-20T14:09:25.389Z,4.8
2023-02-20T14:10:41.641Z,4.9
2023-02-20T14:11:57.889Z,4
2023-02-20T14:13:14.124Z,3.5
2023-02-20T14:14:30.346Z,4.8
2023-02-20T14:15:46.588Z,3.7
2023-02-20T14:17:02.823Z,4.3
2023-02-20T14:18:19.064Z,4.4
2023-02-20T14:19:35.309Z,5.2
2023-02-20T14:20:51.548Z,5.3
2023-02-20T14:22:07.804Z,3.4
2023-02-20T14:23:24.037Z,4
2023-02-20T14:24:40.262Z,4.5
2023-02-20T14:25:55.549Z,4.6
2023-02-20T14:27:11.767Z,4
2023-02-20T14:28:28.028Z,4.4
2023-02-20T14:29:44.243Z,5.6
2023-02-20T14:31:00.505Z,5.1
2023-02-20T14:32:16.726Z,5.3
2023-02-20T14:33:32.966Z,5.3
2023-02-20T14:34:49.214Z,6.3
2023-02-20T14:36:05.451Z,4
2023-02-20T14:37:21.701Z,4
2023-02-20T14:38:37.936Z,4.5
2023-02-20T14:39:54.178Z,4.9
2023-02-20T14:41:10.432Z,4.8
2023-02-20T14:42:25.665Z,4.5
2023-02-20T14:43:41.909Z,5.5
2023-02-20T14:44:58.155Z,6.2
2023-02-20T14:46:14.385Z,8
2023-02-20T14:47:30.630Z,4.3
2023-02-20T14:48:46.853Z,4.6
2023-02-20T14:50:03.125Z,5.5
2023-02-20T14:51:19.364Z,4.8
2023-02-20T14:52:35.603Z,4.7
2023-02-20T14:53:51.829Z,5.3
2023-02-20T14:55:08.055Z,5.9
2023-02-20T14:56:24.300Z,4.5
2023-02-20T14:57:40.537Z,5.4
2023-02-20T14:58:55.804Z,4.4
2023-02-20T15:00:12.044Z,5.7
2023-02-20T15:01:28.269Z,5
2023-02-20T15:02:44.519Z,5.6
2023-02-20T15:04:00.754Z,5.6
2023-02-20T15:05:16.991Z,4.7
2023-02-20T15:06:33.238Z,5.3
2023-02-20T15:07:49.471Z,4.9
2023-02-20T15:09:05.728Z,6.1
2023-02-20T15:10:21.947Z,4.3
2023-02-20T15:11:38.201Z,4.7
2023-02-20T15:12:54.425Z,5.1
2023-02-20T15:14:10.680Z,6.2
2023-02-20T15:15:25.926Z,5.8
2023-02-20T15:16:42.195Z,6.4
2023-02-20T15:17:58.418Z,7.4
2023-02-20T15:19:14.654Z,4.7
2023-02-20T15:20:30.900Z,5.7
2023-02-20T15:21:47.124Z,6.6
2023-02-20T15:23:03.364Z,5.2
2023-02-20T15:24:19.607Z,6
2023-02-20T15:25:35.848Z,6.6
2023-02-20T15:26:52.096Z,6.3
2023-02-20T15:28:08.326Z,6.2
2023-02-20T15:29:24.579Z,5.5
2023-02-20T15:30:40.821Z,6.2
2023-02-20T15:31:56.060Z,6.3
2023-02-20T15:33:12.315Z,5.9
2023-02-20T15:34:28.557Z,5.5
2023-02-20T15:35:44.794Z,6.1
2023-02-20T15:37:01.047Z,6
2023-02-20T15:38:17.287Z,6.2
2023-02-20T15:39:33.501Z,6.1
2023-02-20T15:40:49.768Z,6.4
2023-02-20T15:42:05.978Z,5.8
2023-02-20T15:43:22.240Z,6.3
2023-02-20T15:44:38.476Z,7.2
2023-02-20T15:45:54.704Z,6.5
2023-02-20T15:48:27.180Z,5.8
2023-02-20T15:49:42.435Z,4.6
2023-02-20T15:50:58.696Z,6
2023-02-20T15:52:14.932Z,5.4
2023-02-20T15:53:31.151Z,5.4
2023-02-20T15:54:47.402Z,4.6
2023-02-20T15:56:03.639Z,5.2
2023-02-20T15:57:19.874Z,4.9
2023-02-20T15:58:36.115Z,5.8
2023-02-20T15:59:52.367Z,4.9
2023-02-20T16:01:08.597Z,5.2
2023-02-20T16:03:41.090Z,5.1
2023-02-20T16:04:57.339Z,6.4
2023-02-20T16:06:12.575Z,4.9
2023-02-20T16:07:28.810Z,5.4
2023-02-20T16:08:45.083Z,5.3
2023-02-20T16:10:01.303Z,5.6
2023-02-20T16:11:17.543Z,6.1
2023-02-20T16:12:33.774Z,4.8
2023-02-20T16:13:50.030Z,5.1
2023-02-20T16:15:06.271Z,5.3
2023-02-20T16:16:22.507Z,5.3
2023-02-20T16:17:38.745Z,7.1
2023-02-20T16:18:54.983Z,6.8
2023-02-20T16:20:11.221Z,3.6
2023-02-20T16:21:27.446Z,6.6
2023-02-20T16:22:42.708Z,4.8
2023-02-20T16:23:58.965Z,5
2023-02-20T16:25:15.181Z,4.5
2023-02-20T16:26:31.442Z,5
2023-02-20T16:27:47.663Z,5.4
2023-02-20T16:29:02.930Z,5.6
2023-02-20T16:30:19.163Z,6.1
2023-02-20T16:31:35.419Z,4.4
2023-02-20T16:32:51.650Z,4.8
2023-02-20T16:34:07.912Z,5.6
2023-02-20T16:35:24.154Z,5.1
2023-02-20T16:36:40.366Z,5.3
2023-02-20T16:37:56.612Z,5.5
2023-02-20T16:39:12.845Z,5.4
2023-02-20T16:40:29.097Z,6.2
2023-02-20T16:41:45.344Z,5.5
2023-02-20T16:43:01.596Z,6.3
2023-02-20T16:44:17.816Z,5
2023-02-20T16:45:33.064Z,5
2023-02-20T16:46:49.321Z,4.6
2023-02-20T16:48:05.544Z,5.3
2023-02-20T16:49:21.808Z,4.9
2023-02-20T16:50:38.038Z,4.7
2023-02-20T16:51:54.263Z,4.7
2023-02-20T16:53:10.496Z,8.8
2023-02-20T16:54:26.764Z,8.5
2023-02-20T16:55:43.029Z,8.3
2023-02-20T16:56:59.353Z,10
2023-02-20T16:58:15.000Z,9.9
2023-02-20T16:59:31.811Z,9.7
2023-02-20T17:00:48.116Z,10.8
2023-02-20T17:02:03.434Z,9.9
2023-02-20T17:03:19.720Z,10.6
2023-02-20T17:04:36.013Z,11.2
2023-02-20T17:05:52.301Z,16
2023-02-20T17:07:08.608Z,36.2
2023-02-20T17:08:24.881Z,27.1
2023-02-20T17:09:41.195Z,55.7
2023-02-20T17:10:57.480Z,25.2
2023-02-20T17:12:13.779Z,20.6
2023-02-20T17:13:30.076Z,16
2023-02-20T17:14:46.351Z,12.8
2023-02-20T17:16:02.664Z,12.3
2023-02-20T17:17:18.935Z,9.6
2023-02-20T17:18:34.243Z,10
2023-02-20T17:19:50.545Z,11.5
2023-02-20T17:21:06.852Z,10.7
2023-02-20T17:22:23.145Z,9.8
2023-02-20T17:23:39.438Z,10
2023-02-20T17:24:55.714Z,10.1
2023-02-20T17:26:12.013Z,10.3
2023-02-20T17:27:28.303Z,11.8
2023-02-20T17:28:44.621Z,11.7
2023-02-20T17:30:00.888Z,9.8
2023-02-20T17:31:17.217Z,9.7
2023-02-20T17:32:33.488Z,9
2023-02-20T17:33:49.789Z,9.5
2023-02-20T17:35:05.074Z,8.4
2023-02-20T17:36:21.365Z,6.2
2023-02-20T17:37:37.663Z,5.2